Time,TemperatureF,DewpointF,PressureIn,WindDirection,WindDirectionDegrees,WindSpeedMPH,WindSpeedGustMPH,Humidity,HourlyPrecipIn,Conditions,Clouds,dailyrainin,SoftwareType,DateUTC
2013-03-04 00:02:00,42.1,36.4,30.11,North,-999,0.0,0.0,80,0.00,,,0.00,pywws,2013-03-04 00:02:00,
2013-03-04 00:07:00,41.9,36.5,30.11,North,-999,0.0,0.0,81,0.00,,,0.00,pywws,2013-03-04 00:07:00,
2013-03-04 00:12:00,41.9,36.5,30.11,North,-999,0.0,0.0,81,0.00,,,0.00,pywws,2013-03-04 00:12:00,
2013-03-04 00:17:00,41.9,36.5,30.11,North,-999,0.0,0.0,81,0.00,,,0.00,pywws,2013-03-04 00:17:00,
2013-03-04 00:22:00,41.7,36.3,30.11,North,-999,0.0,0.0,81,0.00,,,0.00,pywws,2013-03-04 00:22:00,
2013-03-04 00:27:00,41.5,36.5,30.11,North,-999,0.0,0.0,82,0.00,,,0.00,pywws,2013-03-04 00:27:00,
2013-03-04 00:32:00,41.5,36.5,30.11,North,-999,0.0,0.0,82,0.00,,,0.00,pywws,2013-03-04 00:32:00,
2013-03-04 00:37:00,41.5,36.8,30.11,North,-999,0.0,0.7,83,0.00,,,0.00,pywws,2013-03-04 00:37:00,
2013-03-04 00:42:00,41.7,36.9,30.11,North,-999,0.0,0.0,83,0.00,,,0.00,pywws,2013-03-04 00:42:00,
2013-03-04 00:47:00,42.1,37.0,30.11,North,-999,0.0,0.7,82,0.00,,,0.00,pywws,2013-03-04 00:47:00,
2013-03-04 00:52:00,42.3,37.2,30.11,North,-999,0.0,0.0,82,0.00,,,0.00,pywws,2013-03-04 00:52:00,
2013-03-04 01:02:00,42.3,36.9,30.11,North,-999,0.0,1.6,81,0.00,,,0.00,pywws,2013-03-04 01:02:00,
2013-03-04 01:07:00,42.3,36.9,30.11,North,-999,0.0,0.0,81,0.00,,,0.00,pywws,2013-03-04 01:07:00,
2013-03-04 01:12:00,42.3,36.9,30.11,North,-999,0.0,0.7,81,0.00,,,0.00,pywws,2013-03-04 01:12:00,
2013-03-04 01:17:00,42.1,37.0,30.10,North,-999,0.0,0.0,82,0.00,,,0.00,pywws,2013-03-04 01:17:00,
2013-03-04 01:22:00,41.7,36.6,30.11,North,-999,0.0,0.0,82,0.00,,,0.00,pywws,2013-03-04 01:22:00,
2013-03-04 01:27:00,41.5,36.8,30.10,North,-999,0.0,0.0,83,0.00,,,0.00,pywws,2013-03-04 01:27:00,
2013-03-04 01:32:00,41.5,37.1,30.10,North,-999,0.0,0.0,84,0.00,,,0.00,pywws,2013-03-04 01:32:00,
2013-03-04 01:37:00,41.4,36.9,30.10,North,-999,0.0,0.0,84,0.00,,,0.00,pywws,2013-03-04 01:37:00,
2013-03-04 01:42:00,41.2,36.7,30.10,North,-999,0.0,0.0,84,0.00,,,0.00,pywws,2013-03-04 01:42:00,
2013-03-04 01:47:00,41.2,37.0,30.10,North,-999,0.0,0.0,85,0.00,,,0.00,pywws,2013-03-04 01:47:00,
2013-03-04 01:52:00,41.2,37.0,30.09,North,-999,0.0,0.0,85,0.00,,,0.00,pywws,2013-03-04 01:52:00,
2013-03-04 02:02:00,41.2,37.0,30.09,North,-999,0.0,0.0,85,0.00,,,0.00,pywws,2013-03-04 02:02:00,
2013-03-04 02:07:00,41.0,37.1,30.09,North,-999,0.0,0.0,86,0.00,,,0.00,pywws,2013-03-04 02:07:00,
2013-03-04 02:12:00,41.2,37.3,30.09,North,-999,0.0,0.0,86,0.00,,,0.00,pywws,2013-03-04 02:12:00,
2013-03-04 02:17:00,41.2,37.3,30.09,North,-999,0.0,0.0,86,0.00,,,0.00,pywws,2013-03-04 02:17:00,
2013-03-04 02:22:00,41.2,37.3,30.08,North,-999,0.0,0.0,86,0.00,,,0.00,pywws,2013-03-04 02:22:00,
2013-03-04 02:27:00,41.2,37.3,30.09,NW,315,0.7,2.2,86,0.00,,,0.00,pywws,2013-03-04 02:27:00,
2013-03-04 02:32:00,41.5,37.1,30.09,North,-999,0.0,0.0,84,0.00,,,0.00,pywws,2013-03-04 02:32:00,
2013-03-04 02:37:00,41.7,37.2,30.08,North,-999,0.0,0.0,84,0.00,,,0.00,pywws,2013-03-04 02:37:00,
2013-03-04 02:42:00,41.9,37.1,30.07,North,-999,0.0,0.0,83,0.00,,,0.00,pywws,2013-03-04 02:42:00,
2013-03-04 02:47:00,41.9,37.1,30.07,North,-999,0.0,0.7,83,0.00,,,0.00,pywws,2013-03-04 02:47:00,
2013-03-04 02:52:00,41.9,37.1,30.07,North,-999,0.0,0.0,83,0.00,,,0.00,pywws,2013-03-04 02:52:00,
2013-03-04 03:02:00,41.9,37.1,30.07,North,-999,0.0,0.0,83,0.00,,,0.00,pywws,2013-03-04 03:02:00,
2013-03-04 03:07:00,42.1,37.0,30.07,North,-999,0.0,0.7,82,0.00,,,0.00,pywws,2013-03-04 03:07:00,
2013-03-04 03:12:00,42.1,37.0,30.07,North,-999,0.0,1.6,82,0.00,,,0.00,pywws,2013-03-04 03:12:00,
2013-03-04 03:17:00,42.1,37.0,30.07,North,-999,0.0,0.7,82,0.00,,,0.00,pywws,2013-03-04 03:17:00,
2013-03-04 03:22:00,42.1,36.7,30.06,North,-999,0.0,0.7,81,0.00,,,0.00,pywws,2013-03-04 03:22:00,
2013-03-04 03:27:00,42.3,36.9,30.07,North,-999,0.0,0.7,81,0.00,,,0.00,pywws,2013-03-04 03:27:00,
2013-03-04 03:32:00,42.3,36.5,30.06,North,-999,0.0,1.6,80,0.00,,,0.00,pywws,2013-03-04 03:32:00,
2013-03-04 03:37:00,42.3,36.5,30.06,North,-999,0.0,0.7,80,0.00,,,0.00,pywws,2013-03-04 03:37:00,
2013-03-04 03:42:00,42.3,36.5,30.06,North,-999,0.0,0.7,80,0.00,,,0.00,pywws,2013-03-04 03:42:00,
2013-03-04 03:47:00,42.3,36.5,30.06,North,-999,0.0,0.7,80,0.00,,,0.00,pywws,2013-03-04 03:47:00,
2013-03-04 03:52:00,42.3,36.5,30.06,North,-999,0.0,0.7,80,0.00,,,0.00,pywws,2013-03-04 03:52:00,
2013-03-04 04:02:00,42.3,36.5,30.06,North,-999,0.0,1.6,80,0.00,,,0.00,pywws,2013-03-04 04:02:00,
2013-03-04 04:07:00,42.3,36.5,30.06,North,-999,0.0,0.7,80,0.00,,,0.00,pywws,2013-03-04 04:07:00,
2013-03-04 04:12:00,42.3,36.5,30.05,North,-999,0.0,0.7,80,0.00,,,0.00,pywws,2013-03-04 04:12:00,
2013-03-04 04:17:00,42.3,36.5,30.05,NW,315,0.7,2.2,80,0.00,,,0.00,pywws,2013-03-04 04:17:00,
2013-03-04 04:22:00,42.1,36.4,30.05,North,-999,0.0,1.6,80,0.00,,,0.00,pywws,2013-03-04 04:22:00,
2013-03-04 04:27:00,42.1,36.4,30.05,North,-999,0.0,1.6,80,0.00,,,0.00,pywws,2013-03-04 04:27:00,
2013-03-04 04:32:00,42.1,36.4,30.05,North,-999,0.0,1.6,80,0.00,,,0.00,pywws,2013-03-04 04:32:00,
2013-03-04 04:37:00,42.1,36.4,30.04,North,-999,0.0,2.2,80,0.00,,,0.00,pywws,2013-03-04 04:37:00,
2013-03-04 04:42:00,42.1,36.4,30.04,North,-999,0.0,1.6,80,0.00,,,0.00,pywws,2013-03-04 04:42:00,
2013-03-04 04:47:00,42.1,36.4,30.05,NW,315,0.7,1.6,80,0.00,,,0.00,pywws,2013-03-04 04:47:00,
2013-03-04 04:52:00,42.3,36.5,30.04,North,-999,0.0,1.6,80,0.00,,,0.00,pywws,2013-03-04 04:52:00,
2013-03-04 05:02:00,42.3,36.5,30.04,NW,315,0.7,1.6,80,0.00,,,0.00,pywws,2013-03-04 05:02:00,
2013-03-04 05:07:00,42.1,36.4,30.04,North,-999,0.0,0.7,80,0.00,,,0.00,pywws,2013-03-04 05:07:00,
2013-03-04 05:12:00,42.1,36.4,30.04,North,-999,0.0,0.7,80,0.00,,,0.00,pywws,2013-03-04 05:12:00,
2013-03-04 05:17:00,42.1,36.4,30.04,North,-999,0.0,0.7,80,0.00,,,0.00,pywws,2013-03-04 05:17:00,
2013-03-04 05:22:00,42.1,36.4,30.04,North,-999,0.0,1.6,80,0.00,,,0.00,pywws,2013-03-04 05:22:00,
2013-03-04 05:27:00,42.1,36.4,30.04,WNW,292,0.7,1.6,80,0.00,,,0.00,pywws,2013-03-04 05:27:00,
2013-03-04 05:32:00,42.1,36.4,30.04,North,-999,0.0,1.6,80,0.00,,,0.00,pywws,2013-03-04 05:32:00,
2013-03-04 05:37:00,42.1,36.4,30.03,North,-999,0.0,1.6,80,0.00,,,0.00,pywws,2013-03-04 05:37:00,
2013-03-04 05:42:00,42.1,36.4,30.03,North,-999,0.0,0.7,80,0.00,,,0.00,pywws,2013-03-04 05:42:00,
2013-03-04 05:47:00,42.1,36.4,30.03,North,-999,0.0,0.7,80,0.00,,,0.00,pywws,2013-03-04 05:47:00,
2013-03-04 05:52:00,41.9,36.5,30.03,North,-999,0.0,0.7,81,0.00,,,0.00,pywws,2013-03-04 05:52:00,
2013-03-04 06:02:00,41.7,36.3,30.03,North,-999,0.0,0.7,81,0.00,,,0.00,pywws,2013-03-04 06:02:00,
2013-03-04 06:07:00,41.7,36.3,30.03,NW,315,0.7,2.2,81,0.00,,,0.00,pywws,2013-03-04 06:07:00,
2013-03-04 06:12:00,41.7,36.3,30.03,North,-999,0.0,1.6,81,0.00,,,0.00,pywws,2013-03-04 06:12:00,
2013-03-04 06:17:00,41.7,36.0,30.03,North,-999,0.0,0.0,80,0.00,,,0.00,pywws,2013-03-04 06:17:00,
2013-03-04 06:22:00,41.7,36.0,30.02,North,-999,0.0,0.0,80,0.00,,,0.00,pywws,2013-03-04 06:22:00,
2013-03-04 06:27:00,41.5,36.2,30.02,North,-999,0.0,0.0,81,0.00,,,0.00,pywws,2013-03-04 06:27:00,
2013-03-04 06:32:00,41.5,36.2,30.02,North,-999,0.0,0.0,81,0.00,,,0.00,pywws,2013-03-04 06:32:00,
2013-03-04 06:37:00,41.4,36.0,30.02,North,-999,0.0,0.7,81,0.00,,,0.00,pywws,2013-03-04 06:37:00,
2013-03-04 06:42:00,41.5,36.2,30.02,North,-999,0.0,0.7,81,0.00,,,0.00,pywws,2013-03-04 06:42:00,
2013-03-04 06:47:00,41.5,35.8,30.02,North,-999,0.0,0.0,80,0.00,,,0.00,pywws,2013-03-04 06:47:00,
2013-03-04 06:52:00,41.4,35.7,30.02,North,-999,0.0,0.0,80,0.00,,,0.00,pywws,2013-03-04 06:52:00,
2013-03-04 07:02:00,41.2,35.5,30.02,North,-999,0.0,0.0,80,0.00,,,0.00,pywws,2013-03-04 07:02:00,
2013-03-04 07:07:00,41.2,35.8,30.02,North,-999,0.0,0.0,81,0.00,,,0.00,pywws,2013-03-04 07:07:00,
2013-03-04 07:12:00,41.4,35.7,30.02,West,270,0.7,2.2,80,0.00,,,0.00,pywws,2013-03-04 07:12:00,
2013-03-04 07:17:00,41.5,35.5,30.02,North,-999,0.0,0.7,79,0.00,,,0.00,pywws,2013-03-04 07:17:00,
2013-03-04 07:22:00,41.7,35.4,30.02,North,-999,0.0,0.7,78,0.00,,,0.00,pywws,2013-03-04 07:22:00,
2013-03-04 07:27:00,41.9,35.5,30.02,North,-999,0.0,0.7,78,0.00,,,0.00,pywws,2013-03-04 07:27:00,
2013-03-04 07:32:00,41.9,35.5,30.02,North,-999,0.0,1.6,78,0.00,,,0.00,pywws,2013-03-04 07:32:00,
2013-03-04 07:37:00,41.9,35.2,30.02,North,-999,0.0,1.6,77,0.00,,,0.00,pywws,2013-03-04 07:37:00,
2013-03-04 07:42:00,42.1,35.4,30.02,West,270,1.6,3.8,77,0.00,,,0.00,pywws,2013-03-04 07:42:00,
2013-03-04 07:47:00,42.1,35.4,30.01,NW,315,0.7,2.2,77,0.00,,,0.00,pywws,2013-03-04 07:47:00,
2013-03-04 07:52:00,42.1,35.4,30.02,North,-999,0.0,2.2,77,0.00,,,0.00,pywws,2013-03-04 07:52:00,
2013-03-04 08:02:00,42.3,35.6,30.01,North,-999,0.0,0.7,77,0.00,,,0.00,pywws,2013-03-04 08:02:00,
2013-03-04 08:07:00,42.3,35.6,30.02,North,-999,0.0,1.6,77,0.00,,,0.00,pywws,2013-03-04 08:07:00,
2013-03-04 08:12:00,42.3,35.2,30.01,West,270,0.7,2.2,76,0.00,,,0.00,pywws,2013-03-04 08:12:00,
2013-03-04 08:17:00,42.4,35.4,30.02,NW,315,0.7,3.1,76,0.00,,,0.00,pywws,2013-03-04 08:17:00,
2013-03-04 08:22:00,42.4,35.1,30.01,North,-999,0.0,2.2,75,0.00,,,0.00,pywws,2013-03-04 08:22:00,
2013-03-04 08:27:00,42.6,34.9,30.01,North,-999,0.0,2.2,74,0.00,,,0.00,pywws,2013-03-04 08:27:00,
2013-03-04 08:32:00,42.8,35.1,30.01,NW,315,0.7,2.2,74,0.00,,,0.00,pywws,2013-03-04 08:32:00,
2013-03-04 08:37:00,43.0,34.6,30.01,West,270,1.6,3.1,72,0.00,,,0.00,pywws,2013-03-04 08:37:00,
2013-03-04 08:42:00,43.3,34.2,30.01,West,270,1.6,3.1,70,0.00,,,0.00,pywws,2013-03-04 08:42:00,
2013-03-04 08:47:00,43.5,34.4,30.01,NNW,338,0.7,2.2,70,0.00,,,0.00,pywws,2013-03-04 08:47:00,
2013-03-04 08:52:00,43.5,34.0,30.01,North,-999,0.0,3.1,69,0.00,,,0.00,pywws,2013-03-04 08:52:00,
2013-03-04 09:02:00,43.5,34.4,30.01,NW,315,0.7,3.1,70,0.00,,,0.00,pywws,2013-03-04 09:02:00,
2013-03-04 09:07:00,43.7,34.9,30.00,NW,315,1.6,3.1,71,0.00,,,0.00,pywws,2013-03-04 09:07:00,
2013-03-04 09:12:00,43.7,35.3,30.00,North,0,1.6,3.8,72,0.00,,,0.00,pywws,2013-03-04 09:12:00,
2013-03-04 09:17:00,43.9,35.4,30.00,NW,315,0.7,2.2,72,0.00,,,0.00,pywws,2013-03-04 09:17:00,
2013-03-04 09:22:00,43.9,35.4,30.00,North,0,0.7,1.6,72,0.00,,,0.00,pywws,2013-03-04 09:22:00,
2013-03-04 09:27:00,44.1,35.3,30.00,NW,315,0.7,2.2,71,0.00,,,0.00,pywws,2013-03-04 09:27:00,
2013-03-04 09:32:00,44.2,35.4,29.99,North,-999,0.0,3.1,71,0.00,,,0.00,pywws,2013-03-04 09:32:00,
2013-03-04 09:37:00,44.4,35.3,29.99,NW,315,1.6,3.8,70,0.00,,,0.00,pywws,2013-03-04 09:37:00,
2013-03-04 09:42:00,44.6,35.4,29.99,NW,315,0.7,2.2,70,0.00,,,0.00,pywws,2013-03-04 09:42:00,
2013-03-04 09:47:00,44.6,35.1,29.99,NW,315,0.7,3.8,69,0.00,,,0.00,pywws,2013-03-04 09:47:00,
2013-03-04 09:52:00,44.4,34.9,29.99,NW,315,1.6,3.1,69,0.00,,,0.00,pywws,2013-03-04 09:52:00,
2013-03-04 10:02:00,44.8,34.9,29.99,North,0,2.2,5.4,68,0.00,,,0.00,pywws,2013-03-04 10:02:00,
2013-03-04 10:07:00,45.5,35.2,29.99,NW,315,1.6,3.8,67,0.00,,,0.00,pywws,2013-03-04 10:07:00,
2013-03-04 10:12:00,46.4,36.0,29.98,North,-999,0.0,1.6,67,0.00,,,0.00,pywws,2013-03-04 10:12:00,
2013-03-04 10:17:00,46.6,35.5,29.98,NW,315,0.7,2.2,65,0.00,,,0.00,pywws,2013-03-04 10:17:00,
2013-03-04 10:22:00,46.6,34.7,29.98,North,0,1.6,3.1,63,0.00,,,0.00,pywws,2013-03-04 10:22:00,
2013-03-04 10:27:00,46.6,34.7,29.98,East,90,0.7,3.1,63,0.00,,,0.00,pywws,2013-03-04 10:27:00,
2013-03-04 10:32:00,46.9,35.4,29.98,North,-999,0.0,0.7,64,0.00,,,0.00,pywws,2013-03-04 10:32:00,
2013-03-04 10:37:00,47.5,35.5,29.98,North,-999,0.0,1.6,63,0.00,,,0.00,pywws,2013-03-04 10:37:00,
2013-03-04 10:42:00,47.5,35.1,29.97,NW,315,1.6,3.1,62,0.00,,,0.00,pywws,2013-03-04 10:42:00,
2013-03-04 10:47:00,47.5,35.1,29.98,North,0,0.7,2.2,62,0.00,,,0.00,pywws,2013-03-04 10:47:00,
2013-03-04 10:52:00,47.7,35.3,29.98,North,-999,0.0,2.2,62,0.00,,,0.00,pywws,2013-03-04 10:52:00,
2013-03-04 11:02:00,48.2,35.8,29.97,North,-999,0.0,1.6,62,0.00,,,0.00,pywws,2013-03-04 11:02:00,
2013-03-04 11:07:00,48.2,35.4,29.97,NNW,338,0.7,2.2,61,0.00,,,0.00,pywws,2013-03-04 11:07:00,
2013-03-04 11:12:00,48.0,35.6,29.97,NW,315,0.7,1.6,62,0.00,,,0.00,pywws,2013-03-04 11:12:00,
2013-03-04 11:17:00,47.8,35.5,29.97,NW,315,0.7,3.8,62,0.00,,,0.00,pywws,2013-03-04 11:17:00,
2013-03-04 11:22:00,47.8,35.5,29.97,North,-999,0.0,2.2,62,0.00,,,0.00,pywws,2013-03-04 11:22:00,
2013-03-04 11:27:00,48.0,35.6,29.97,NW,315,1.6,3.1,62,0.00,,,0.00,pywws,2013-03-04 11:27:00,
2013-03-04 11:32:00,48.0,35.6,29.97,North,-999,0.0,1.6,62,0.00,,,0.00,pywws,2013-03-04 11:32:00,
2013-03-04 11:37:00,48.7,37.5,29.97,NW,315,0.7,2.2,65,0.00,,,0.00,pywws,2013-03-04 11:37:00,
2013-03-04 11:42:00,50.2,38.5,29.96,NW,315,0.7,3.1,64,0.00,,,0.00,pywws,2013-03-04 11:42:00,
2013-03-04 11:47:00,50.7,38.6,29.96,NW,315,1.6,3.8,63,0.00,,,0.00,pywws,2013-03-04 11:47:00,
2013-03-04 11:52:00,49.6,37.6,29.96,NW,315,1.6,3.8,63,0.00,,,0.00,pywws,2013-03-04 11:52:00,
2013-03-04 12:02:00,48.4,37.6,29.96,East,90,1.6,5.4,66,0.00,,,0.00,pywws,2013-03-04 12:02:00,
2013-03-04 12:07:00,48.6,38.1,29.95,NW,315,0.7,3.1,67,0.00,,,0.00,pywws,2013-03-04 12:07:00,
2013-03-04 12:12:00,48.0,36.8,29.95,NW,315,1.6,3.8,65,0.00,,,0.00,pywws,2013-03-04 12:12:00,
2013-03-04 12:17:00,47.3,36.9,29.95,North,0,0.7,3.1,67,0.00,,,0.00,pywws,2013-03-04 12:17:00,
2013-03-04 12:22:00,47.5,37.5,29.94,NW,315,0.7,1.6,68,0.00,,,0.00,pywws,2013-03-04 12:22:00,
2013-03-04 12:27:00,47.8,37.0,29.94,East,90,0.7,3.8,66,0.00,,,0.00,pywws,2013-03-04 12:27:00,
2013-03-04 12:32:00,48.2,37.0,29.93,West,270,1.6,3.8,65,0.00,,,0.00,pywws,2013-03-04 12:32:00,
2013-03-04 12:37:00,48.4,36.8,29.93,West,270,1.6,3.1,64,0.00,,,0.00,pywws,2013-03-04 12:37:00,
2013-03-04 12:42:00,48.9,37.3,29.93,North,-999,0.0,3.1,64,0.00,,,0.00,pywws,2013-03-04 12:42:00,
2013-03-04 12:47:00,49.3,36.8,29.93,North,0,0.7,2.2,62,0.00,,,0.00,pywws,2013-03-04 12:47:00,
2013-03-04 12:52:00,49.8,37.7,29.93,North,-999,0.0,2.2,63,0.00,,,0.00,pywws,2013-03-04 12:52:00,
2013-03-04 13:02:00,50.0,37.9,29.92,North,-999,0.0,2.2,63,0.00,,,0.00,pywws,2013-03-04 13:02:00,
2013-03-04 13:07:00,49.1,37.1,29.92,North,-999,0.0,1.6,63,0.00,,,0.00,pywws,2013-03-04 13:07:00,
2013-03-04 13:12:00,49.3,37.2,29.91,South,180,1.6,4.5,63,0.00,,,0.00,pywws,2013-03-04 13:12:00,
2013-03-04 13:17:00,50.7,37.8,29.91,North,0,1.6,4.5,61,0.00,,,0.00,pywws,2013-03-04 13:17:00,
2013-03-04 13:22:00,52.3,38.9,29.91,West,270,0.7,3.8,60,0.00,,,0.00,pywws,2013-03-04 13:22:00,
2013-03-04 13:27:00,52.3,37.6,29.91,West,270,0.7,3.1,57,0.00,,,0.00,pywws,2013-03-04 13:27:00,
2013-03-04 13:32:00,52.0,37.7,29.90,SE,135,0.7,2.2,58,0.00,,,0.00,pywws,2013-03-04 13:32:00,
2013-03-04 13:37:00,51.6,37.3,29.90,North,-999,0.0,3.8,58,0.00,,,0.00,pywws,2013-03-04 13:37:00,
2013-03-04 13:42:00,51.1,37.3,29.90,NW,315,0.7,3.1,59,0.00,,,0.00,pywws,2013-03-04 13:42:00,
2013-03-04 13:47:00,50.4,37.0,29.90,SW,225,0.7,5.4,60,0.00,,,0.00,pywws,2013-03-04 13:47:00,
2013-03-04 13:52:00,50.0,37.1,29.89,SSE,158,0.7,1.6,61,0.00,,,0.00,pywws,2013-03-04 13:52:00,
2013-03-04 14:02:00,50.9,37.1,29.89,NW,315,0.7,2.2,59,0.00,,,0.00,pywws,2013-03-04 14:02:00,
2013-03-04 14:07:00,50.9,37.5,29.89,NW,315,0.7,3.8,60,0.00,,,0.00,pywws,2013-03-04 14:07:00,
2013-03-04 14:12:00,50.7,36.5,29.88,SE,135,2.2,5.4,58,0.00,,,0.00,pywws,2013-03-04 14:12:00,
2013-03-04 14:17:00,50.2,36.4,29.88,West,270,1.6,3.1,59,0.00,,,0.00,pywws,2013-03-04 14:17:00,
2013-03-04 14:22:00,50.0,36.7,29.88,SW,225,2.2,3.8,60,0.00,,,0.00,pywws,2013-03-04 14:22:00,
2013-03-04 14:27:00,49.5,36.6,29.88,North,-999,0.0,1.6,61,0.00,,,0.00,pywws,2013-03-04 14:27:00,
2013-03-04 14:32:00,48.9,36.5,29.88,North,-999,0.0,1.6,62,0.00,,,0.00,pywws,2013-03-04 14:32:00,
2013-03-04 14:37:00,49.1,36.6,29.87,East,90,0.7,2.2,62,0.00,,,0.00,pywws,2013-03-04 14:37:00,
2013-03-04 14:42:00,48.7,36.3,29.87,North,-999,0.0,1.6,62,0.00,,,0.00,pywws,2013-03-04 14:42:00,
2013-03-04 14:47:00,48.4,36.0,29.87,SW,225,3.8,6.0,62,0.00,,,0.00,pywws,2013-03-04 14:47:00,
2013-03-04 14:52:00,47.8,36.3,29.87,South,180,2.2,5.4,64,0.00,,,0.00,pywws,2013-03-04 14:52:00,
2013-03-04 15:02:00,47.7,36.1,29.87,SW,225,0.7,3.1,64,0.00,,,0.00,pywws,2013-03-04 15:02:00,
2013-03-04 15:07:00,47.5,35.9,29.86,WNW,292,1.6,2.2,64,0.00,,,0.00,pywws,2013-03-04 15:07:00,
2013-03-04 15:12:00,47.5,36.3,29.86,North,-999,0.0,1.6,65,0.00,,,0.00,pywws,2013-03-04 15:12:00,
2013-03-04 15:17:00,47.5,36.3,29.85,North,-999,0.0,0.7,65,0.00,,,0.00,pywws,2013-03-04 15:17:00,
2013-03-04 15:22:00,47.8,36.3,29.85,North,-999,0.0,2.2,64,0.00,,,0.00,pywws,2013-03-04 15:22:00,
2013-03-04 15:27:00,47.7,35.7,29.85,East,90,0.7,1.6,63,0.00,,,0.00,pywws,2013-03-04 15:27:00,
2013-03-04 15:32:00,47.1,36.0,29.85,NE,45,0.7,3.1,65,0.00,,,0.00,pywws,2013-03-04 15:32:00,
2013-03-04 15:37:00,46.2,35.9,29.85,North,-999,0.0,2.2,67,0.00,,,0.00,pywws,2013-03-04 15:37:00,
2013-03-04 15:42:00,46.0,36.1,29.85,NE,45,0.7,3.1,68,0.00,,,0.00,pywws,2013-03-04 15:42:00,
2013-03-04 15:47:00,45.9,35.9,29.85,West,270,0.7,2.2,68,0.00,,,0.00,pywws,2013-03-04 15:47:00,
2013-03-04 15:52:00,45.5,35.9,29.85,North,-999,0.0,1.6,69,0.00,,,0.00,pywws,2013-03-04 15:52:00,
2013-03-04 16:02:00,45.5,35.9,29.85,North,-999,0.0,0.7,69,0.00,,,0.00,pywws,2013-03-04 16:02:00,
2013-03-04 16:07:00,45.0,35.8,29.84,NE,45,0.7,2.2,70,0.00,,,0.00,pywws,2013-03-04 16:07:00,
2013-03-04 16:12:00,44.8,35.6,29.84,North,-999,0.0,2.2,70,0.00,,,0.00,pywws,2013-03-04 16:12:00,
2013-03-04 16:17:00,44.6,35.4,29.84,North,-999,0.0,1.6,70,0.00,,,0.00,pywws,2013-03-04 16:17:00,
2013-03-04 16:22:00,44.6,35.4,29.84,North,-999,0.0,0.7,70,0.00,,,0.00,pywws,2013-03-04 16:22:00,
2013-03-04 16:27:00,44.8,35.6,29.83,North,-999,0.0,1.6,70,0.00,,,0.00,pywws,2013-03-04 16:27:00,
2013-03-04 16:32:00,45.0,35.8,29.84,North,-999,0.0,2.2,70,0.00,,,0.00,pywws,2013-03-04 16:32:00,
2013-03-04 16:37:00,44.8,35.6,29.83,North,0,0.7,2.2,70,0.00,,,0.00,pywws,2013-03-04 16:37:00,
2013-03-04 16:42:00,44.4,35.3,29.83,West,270,0.7,3.1,70,0.00,,,0.00,pywws,2013-03-04 16:42:00,
2013-03-04 16:47:00,44.1,34.9,29.83,West,270,0.7,1.6,70,0.00,,,0.00,pywws,2013-03-04 16:47:00,
2013-03-04 16:52:00,43.7,34.6,29.83,North,0,0.7,2.2,70,0.00,,,0.00,pywws,2013-03-04 16:52:00,
2013-03-04 17:02:00,43.5,34.8,29.83,NW,315,0.7,2.2,71,0.00,,,0.00,pywws,2013-03-04 17:02:00,
2013-03-04 17:07:00,43.0,34.6,29.83,North,-999,0.0,0.7,72,0.00,,,0.00,pywws,2013-03-04 17:07:00,
2013-03-04 17:12:00,42.8,34.4,29.83,North,-999,0.0,1.6,72,0.00,,,0.00,pywws,2013-03-04 17:12:00,
2013-03-04 17:17:00,42.6,34.6,29.83,North,-999,0.0,0.7,73,0.00,,,0.00,pywws,2013-03-04 17:17:00,
2013-03-04 17:22:00,42.4,34.4,29.83,North,-999,0.0,1.6,73,0.00,,,0.00,pywws,2013-03-04 17:22:00,
2013-03-04 17:27:00,42.3,34.6,29.83,North,-999,0.0,1.6,74,0.00,,,0.00,pywws,2013-03-04 17:27:00,
2013-03-04 17:32:00,42.1,34.4,29.82,North,-999,0.0,0.7,74,0.00,,,0.00,pywws,2013-03-04 17:32:00,
2013-03-04 17:37:00,41.7,34.1,29.82,North,-999,0.0,0.7,74,0.00,,,0.00,pywws,2013-03-04 17:37:00,
2013-03-04 17:42:00,41.5,34.2,29.82,North,-999,0.0,0.0,75,0.00,,,0.00,pywws,2013-03-04 17:42:00,
2013-03-04 17:47:00,41.4,34.0,29.82,North,-999,0.0,0.0,75,0.00,,,0.00,pywws,2013-03-04 17:47:00,
2013-03-04 17:52:00,41.2,33.9,29.82,North,-999,0.0,0.0,75,0.00,,,0.00,pywws,2013-03-04 17:52:00,
2013-03-04 18:02:00,41.0,33.7,29.82,North,-999,0.0,0.0,75,0.00,,,0.00,pywws,2013-03-04 18:02:00,
2013-03-04 18:07:00,40.3,33.7,29.82,North,-999,0.0,0.0,77,0.00,,,0.00,pywws,2013-03-04 18:07:00,
2013-03-04 18:12:00,40.1,33.5,29.82,North,-999,0.0,0.0,77,0.00,,,0.00,pywws,2013-03-04 18:12:00,
2013-03-04 18:17:00,39.7,33.1,29.82,North,-999,0.0,0.0,77,0.00,,,0.00,pywws,2013-03-04 18:17:00,
2013-03-04 18:22:00,39.0,32.8,29.82,North,-999,0.0,0.7,78,0.00,,,0.00,pywws,2013-03-04 18:22:00,
2013-03-04 18:27:00,38.8,32.6,29.82,North,-999,0.0,0.7,78,0.00,,,0.00,pywws,2013-03-04 18:27:00,
2013-03-04 18:32:00,38.8,33.2,29.82,North,-999,0.0,0.0,80,0.00,,,0.00,pywws,2013-03-04 18:32:00,
2013-03-04 18:37:00,38.8,33.5,29.82,North,-999,0.0,1.6,81,0.00,,,0.00,pywws,2013-03-04 18:37:00,
2013-03-04 18:42:00,39.0,33.7,29.82,North,-999,0.0,1.6,81,0.00,,,0.00,pywws,2013-03-04 18:42:00,
2013-03-04 18:47:00,39.2,34.2,29.81,NW,315,0.7,2.2,82,0.00,,,0.00,pywws,2013-03-04 18:47:00,
2013-03-04 18:52:00,39.0,33.7,29.82,North,-999,0.0,0.7,81,0.00,,,0.00,pywws,2013-03-04 18:52:00,
2013-03-04 19:02:00,38.8,33.5,29.81,North,-999,0.0,0.7,81,0.00,,,0.00,pywws,2013-03-04 19:02:00,
2013-03-04 19:07:00,38.5,33.5,29.81,North,-999,0.0,1.6,82,0.00,,,0.00,pywws,2013-03-04 19:07:00,
2013-03-04 19:12:00,38.7,34.0,29.81,North,-999,0.0,1.6,83,0.00,,,0.00,pywws,2013-03-04 19:12:00,
2013-03-04 19:17:00,38.7,33.6,29.81,North,-999,0.0,0.7,82,0.00,,,0.00,pywws,2013-03-04 19:17:00,
2013-03-04 19:22:00,38.5,33.8,29.80,North,-999,0.0,1.6,83,0.00,,,0.00,pywws,2013-03-04 19:22:00,
2013-03-04 19:27:00,38.7,34.0,29.80,North,-999,0.0,0.7,83,0.00,,,0.00,pywws,2013-03-04 19:27:00,
2013-03-04 19:32:00,38.5,33.8,29.81,North,-999,0.0,0.7,83,0.00,,,0.00,pywws,2013-03-04 19:32:00,
2013-03-04 19:37:00,38.7,34.0,29.80,WNW,292,0.7,2.2,83,0.00,,,0.00,pywws,2013-03-04 19:37:00,
2013-03-04 19:42:00,38.7,34.0,29.80,NW,315,0.7,2.2,83,0.00,,,0.00,pywws,2013-03-04 19:42:00,
2013-03-04 19:47:00,38.7,34.0,29.80,North,-999,0.0,2.2,83,0.00,,,0.00,pywws,2013-03-04 19:47:00,
2013-03-04 19:52:00,38.7,34.0,29.80,North,-999,0.0,0.7,83,0.00,,,0.00,pywws,2013-03-04 19:52:00,
2013-03-04 20:02:00,38.5,33.8,29.80,North,-999,0.0,0.7,83,0.00,,,0.00,pywws,2013-03-04 20:02:00,
2013-03-04 20:07:00,37.9,33.2,29.79,NW,315,0.7,2.2,83,0.00,,,0.00,pywws,2013-03-04 20:07:00,
2013-03-04 20:12:00,37.8,33.4,29.79,NW,315,0.7,2.2,84,0.00,,,0.00,pywws,2013-03-04 20:12:00,
2013-03-04 20:17:00,37.6,33.5,29.79,North,-999,0.0,1.6,85,0.00,,,0.00,pywws,2013-03-04 20:17:00,
2013-03-04 20:22:00,37.6,33.2,29.79,West,270,0.7,2.2,84,0.00,,,0.00,pywws,2013-03-04 20:22:00,
2013-03-04 20:27:00,37.2,32.8,29.79,North,-999,0.0,0.7,84,0.00,,,0.00,pywws,2013-03-04 20:27:00,
2013-03-04 20:32:00,36.7,32.0,29.79,North,-999,0.0,0.0,83,0.00,,,0.00,pywws,2013-03-04 20:32:00,
2013-03-04 20:37:00,36.3,32.0,29.79,North,-999,0.0,0.0,84,0.00,,,0.00,pywws,2013-03-04 20:37:00,
2013-03-04 20:42:00,36.3,32.5,29.79,West,270,0.7,1.6,86,0.00,,,0.00,pywws,2013-03-04 20:42:00,
2013-03-04 20:47:00,36.7,33.2,29.79,North,-999,0.0,0.7,87,0.00,,,0.00,pywws,2013-03-04 20:47:00,
2013-03-04 20:52:00,36.9,33.4,29.79,North,-999,0.0,0.0,87,0.00,,,0.00,pywws,2013-03-04 20:52:00,
2013-03-04 21:02:00,36.7,32.9,29.79,North,-999,0.0,0.0,86,0.00,,,0.00,pywws,2013-03-04 21:02:00,
2013-03-04 21:07:00,36.3,32.8,29.78,North,-999,0.0,0.7,87,0.00,,,0.00,pywws,2013-03-04 21:07:00,
2013-03-04 21:12:00,36.3,32.8,29.79,North,-999,0.0,0.0,87,0.00,,,0.00,pywws,2013-03-04 21:12:00,
2013-03-04 21:17:00,36.1,32.7,29.79,North,-999,0.0,0.0,87,0.00,,,0.00,pywws,2013-03-04 21:17:00,
2013-03-04 21:22:00,35.8,32.0,29.79,North,-999,0.0,0.0,86,0.00,,,0.00,pywws,2013-03-04 21:22:00,
2013-03-04 21:27:00,35.6,32.1,29.78,North,-999,0.0,0.0,87,0.00,,,0.00,pywws,2013-03-04 21:27:00,
2013-03-04 21:32:00,35.6,32.4,29.79,North,-999,0.0,0.0,88,0.00,,,0.00,pywws,2013-03-04 21:32:00,
2013-03-04 21:37:00,35.6,32.4,29.79,North,-999,0.0,0.0,88,0.00,,,0.00,pywws,2013-03-04 21:37:00,
2013-03-04 21:42:00,35.2,32.0,29.78,North,-999,0.0,0.0,88,0.00,,,0.00,pywws,2013-03-04 21:42:00,
2013-03-04 21:47:00,35.1,31.9,29.78,North,-999,0.0,0.0,88,0.00,,,0.00,pywws,2013-03-04 21:47:00,
2013-03-04 21:52:00,34.9,31.7,29.78,North,-999,0.0,0.0,88,0.00,,,0.00,pywws,2013-03-04 21:52:00,
2013-03-04 22:02:00,34.9,32.0,29.78,North,-999,0.0,0.0,89,0.00,,,0.00,pywws,2013-03-04 22:02:00,
2013-03-04 22:07:00,34.7,31.8,29.77,North,-999,0.0,0.0,89,0.00,,,0.00,pywws,2013-03-04 22:07:00,
2013-03-04 22:12:00,34.5,31.9,29.78,North,-999,0.0,0.7,90,0.00,,,0.00,pywws,2013-03-04 22:12:00,
2013-03-04 22:17:00,34.3,31.7,29.78,North,-999,0.0,0.0,90,0.00,,,0.00,pywws,2013-03-04 22:17:00,
2013-03-04 22:22:00,34.2,31.5,29.77,North,-999,0.0,0.0,90,0.00,,,0.00,pywws,2013-03-04 22:22:00,
2013-03-04 22:27:00,34.2,31.5,29.77,North,-999,0.0,0.0,90,0.00,,,0.00,pywws,2013-03-04 22:27:00,
2013-03-04 22:32:00,34.3,32.0,29.78,North,-999,0.0,0.7,91,0.00,,,0.00,pywws,2013-03-04 22:32:00,
2013-03-04 22:37:00,34.2,31.8,29.78,North,-999,0.0,0.0,91,0.00,,,0.00,pywws,2013-03-04 22:37:00,
2013-03-04 22:42:00,34.0,31.6,29.77,North,-999,0.0,0.0,91,0.00,,,0.00,pywws,2013-03-04 22:42:00,
2013-03-04 22:47:00,33.6,31.3,29.77,North,-999,0.0,0.0,91,0.00,,,0.00,pywws,2013-03-04 22:47:00,
2013-03-04 22:52:00,33.3,30.9,29.77,North,-999,0.0,0.0,91,0.00,,,0.00,pywws,2013-03-04 22:52:00,
2013-03-04 23:02:00,32.9,30.6,29.77,North,-999,0.0,0.0,91,0.00,,,0.00,pywws,2013-03-04 23:02:00,
2013-03-04 23:07:00,33.3,31.5,29.77,North,-999,0.0,0.0,93,0.00,,,0.00,pywws,2013-03-04 23:07:00,
2013-03-04 23:12:00,33.3,31.5,29.77,North,-999,0.0,0.0,93,0.00,,,0.00,pywws,2013-03-04 23:12:00,
2013-03-04 23:17:00,33.3,31.5,29.77,North,-999,0.0,0.0,93,0.00,,,0.00,pywws,2013-03-04 23:17:00,
2013-03-04 23:22:00,33.3,31.5,29.77,North,-999,0.0,0.7,93,0.00,,,0.00,pywws,2013-03-04 23:22:00,
2013-03-04 23:27:00,33.1,31.3,29.77,North,-999,0.0,0.7,93,0.00,,,0.00,pywws,2013-03-04 23:27:00,
2013-03-04 23:32:00,32.5,30.7,29.76,North,-999,0.0,0.0,93,0.00,,,0.00,pywws,2013-03-04 23:32:00,
2013-03-04 23:37:00,32.2,30.4,29.76,North,-999,0.0,0.7,93,0.00,,,0.00,pywws,2013-03-04 23:37:00,
2013-03-04 23:42:00,32.4,30.8,29.76,North,-999,0.0,0.0,94,0.00,,,0.00,pywws,2013-03-04 23:42:00,
2013-03-04 23:47:00,32.4,30.8,29.77,North,-999,0.0,0.0,94,0.00,,,0.00,pywws,2013-03-04 23:47:00,
2013-03-04 23:52:00,32.2,30.7,29.76,North,-999,0.0,0.0,94,0.00,,,0.00,pywws,2013-03-04 23:52:00,